Flight Track Log - Related Links

Times and Time Zones

All times are in EDT time to prevent confusion due to time zone crossing. See the EJA122 flight status page for this flight to view local times or setup timezone preferences in your user account.

Time Position Orientation Groundspeed Altitude Reporting Facility
EDT Latitude Longitude Course Direction KTS MPH feet Rate Location/Type
Fri 11:32:36 AM 40.9167 -74.0667 270° West 198 228 2,000  Level New York TRACON
Fri 11:33:36 AM 40.9167 -74.1500 270° West 205 236 3,900 1,943 Climbing New York TRACON
Fri 11:36:06 AM 40.9072 -74.3569 267° West 250 288 8,800 1,600 Climbing New York Center
Fri 11:37:06 AM 40.8975 -74.4661 263° West 260 299 9,500 1,729 Climbing New York Center
Fri 11:38:04 AM 40.8867 -74.5506 260° West 266 306 12,200 2,924 Climbing New York Center
Fri 11:39:05 AM 40.8706 -74.6594 259° West 276 318 15,300 2,479 Climbing New York Center
Fri 11:40:05 AM 40.8569 -74.7547 259° West 287 330 17,200 1,785 Climbing New York Center
Fri 11:41:06 AM 40.8383 -74.8742 258° West 307 353 18,900 1,736 Climbing New York Center
Fri 11:42:06 AM 40.8139 -74.9769 253° West 314 361 20,700 1,916 Climbing New York Center
Fri 11:43:05 AM 40.7867 -75.0906 252° West 319 367 22,700 1,750 Climbing New York Center
Fri 11:44:06 AM 40.7594 -75.2064 253° West 325 374 24,200 1,500 Climbing New York Center
Fri 11:45:05 AM 40.7278 -75.3278 251° West 336 387 25,700 1,250 Climbing New York Center
Fri 11:46:06 AM 40.6958 -75.4542 252° West 346 398 26,700 1,008 Climbing New York Center
Fri 11:47:04 AM 40.6658 -75.5808 253° West 363 418 27,700 1,008 Climbing New York Center
Fri 11:48:05 AM 40.6311 -75.7150 251° West 374 430 28,700 934 Climbing New York Center
Fri 11:49:06 AM 40.5944 -75.8408 249° West 379 436 29,600 1,000 Climbing New York Center
Fri 11:50:05 AM 40.5408 -75.9681 241° Southwest 385 443 30,700 1,059 Climbing New York Center
Fri 11:51:05 AM 40.4939 -76.0900 243° Southwest 392 451 31,700 1,000 Climbing New York Center
Fri 11:52:05 AM 40.4481 -76.2256 246° West 398 458 32,700 992 Climbing New York Center
Fri 11:53:06 AM 40.3986 -76.3472 242° Southwest 392 451 33,700 645 Climbing New York Center
Fri 11:54:06 AM 40.3653 -76.4781 252° West 392 451 34,000 101 Climbing New York Center
Fri 11:56:05 AM 40.3333 -76.7450 261° West 379 436 34,000  Level New York Center
Fri 11:57:06 AM 40.3200 -76.8828 263° West 385 443 34,000  Level New York Center
Fri 11:58:06 AM 40.3025 -77.0200 261° West 385 443 34,000  Level New York Center
Fri 12:00:33 PM 40.2658 -77.3694 262° West 374 430 34,000  Level Cleveland Center
Fri 12:01:33 PM 40.2486 -77.5092 261° West 379 436 34,000  Level Cleveland Center
Fri 12:02:33 PM 40.2317 -77.6486 261° West 379 436 34,000  Level Cleveland Center
Fri 12:03:33 PM 40.2142 -77.7853 261° West 384 442 34,000  Level Cleveland Center
Fri 12:04:33 PM 40.1967 -77.9303 261° West 389 448 34,000  Level Cleveland Center
Fri 12:05:33 PM 40.1792 -78.0667 261° West 396 456 34,000  Level Cleveland Center
Fri 12:06:33 PM 40.1611 -78.2006 260° West 389 448 34,000  Level Cleveland Center
Fri 12:07:33 PM 40.1431 -78.3369 260° West 389 448 34,000  Level Cleveland Center
Fri 12:08:33 PM 40.1269 -78.4733 261° West 389 448 34,000  Level Cleveland Center
Fri 12:09:33 PM 40.1083 -78.6097 260° West 389 448 34,000  Level Cleveland Center
Fri 12:10:33 PM 40.0919 -78.7458 261° West 389 448 34,000  Level Cleveland Center
Fri 12:11:33 PM 40.0733 -78.8819 260° West 389 448 34,000  Level Cleveland Center
Fri 12:12:33 PM 40.0564 -79.0153 261° West 389 448 34,000  Level Cleveland Center
Fri 12:13:33 PM 40.0414 -79.1511 262° West 389 448 34,000  Level Cleveland Center
Fri 12:14:33 PM 40.0222 -79.2844 259° West 389 448 34,000  Level Cleveland Center
Fri 12:16:33 PM 40.0083 -79.5531 266° West 382 440 34,000  Level Cleveland Center
Fri 12:17:33 PM 40.0094 -79.6833 271° West 371 427 34,000  Level Cleveland Center
Fri 12:18:33 PM 40.0125 -79.8161 272° West 371 427 34,000  Level Cleveland Center
Fri 12:19:33 PM 40.0111 -79.9514 269° West 366 421 34,000  Level Cleveland Center
Fri 12:20:33 PM 40.0139 -80.0789 272° West 366 421 34,000  Level Cleveland Center
Fri 12:21:33 PM 40.0144 -80.2117 270° West 366 421 34,000  Level Cleveland Center
Fri 12:22:33 PM 40.0147 -80.3444 270° West 366 421 34,000  Level Cleveland Center
Fri 12:23:33 PM 40.0192 -80.4772 273° West 366 421 34,000  Level Cleveland Center
Fri 12:24:33 PM 40.0192 -80.5967 270° West 366 421 34,000  Level Cleveland Center
Fri 12:25:33 PM 40.0211 -80.7294 271° West 366 421 34,000  Level Cleveland Center
Fri 12:26:33 PM 40.0189 -80.8622 269° West 366 421 34,000  Level Cleveland Center
Fri 12:28:49 PM 40.0119 -81.1525 268° West 349 402 34,000  Level Indianapolis Center
Fri 12:29:51 PM 40.0092 -81.2803 268° West 349 402 34,000  Level Indianapolis Center
Fri 12:30:53 PM 40.0061 -81.4306 269° West 353 406 34,000  Level Indianapolis Center
Fri 12:31:55 PM 40.0042 -81.5586 269° West 351 404 34,000  Level Indianapolis Center
Fri 12:32:57 PM 40.0017 -81.6875 269° West 351 404 34,000  Level Indianapolis Center
Fri 12:33:59 PM 39.9986 -81.8256 268° West 356 410 34,000  Level Indianapolis Center
Fri 12:35:01 PM 39.9967 -81.9539 269° West 351 404 34,000  Level Indianapolis Center
Fri 12:36:02 PM 39.9933 -82.0831 268° West 354 407 34,000  Level Indianapolis Center
Fri 12:37:05 PM 39.9900 -82.2108 268° West 351 404 34,000  Level Indianapolis Center
Fri 12:38:06 PM 39.9867 -82.3397 268° West 353 406 34,000  Level Indianapolis Center
Fri 12:39:08 PM 39.9828 -82.4672 268° West 349 402 34,000  Level Indianapolis Center
Fri 12:40:10 PM 39.9794 -82.5947 268° West 348 400 34,000 -387 Level Indianapolis Center
Fri 12:41:12 PM 39.9764 -82.7208 268° West 347 399 33,200 -871 Descending Indianapolis Center
Fri 12:42:14 PM 39.9717 -82.8669 268° West 346 398 32,200 -919 Descending Indianapolis Center
Fri 12:43:16 PM 39.9678 -82.9956 268° West 353 406 31,300 -871 Descending Indianapolis Center
Fri 12:44:18 PM 39.9642 -83.1242 268° West 354 407 30,400 -629 Descending Indianapolis Center
Fri 12:45:20 PM 39.9669 -83.2519 272° West 353 406 30,000 -194 Descending Indianapolis Center
Fri 12:46:22 PM 39.9733 -83.3822 274° West 360 414 30,000  Level Indianapolis Center
Fri 12:47:24 PM 39.9797 -83.5317 273° West 358 412 30,000  Level Indianapolis Center
Fri 12:48:26 PM 39.9861 -83.6594 274° West 355 409 30,000  Level Indianapolis Center
Fri 12:49:28 PM 39.9917 -83.7881 273° West 355 409 30,000  Level Indianapolis Center
Fri 12:50:30 PM 40.0067 -83.9189 279° West 363 418 30,000 -48 Level Indianapolis Center
Fri 12:51:32 PM 40.0286 -84.0503 282° West 367 422 29,900 -240 Descending Indianapolis Center
Fri 12:52:35 PM 40.0483 -84.1783 281° West 361 415 29,500 -1,104 Descending Indianapolis Center
Fri 12:53:37 PM 40.0739 -84.3350 282° West 375 432 27,600 -1,645 Descending Indianapolis Center
Fri 12:54:39 PM 40.0956 -84.4703 282° West 378 435 26,100 -1,016 Descending Indianapolis Center
Fri 12:55:41 PM 40.1167 -84.6044 282° West 375 432 25,500 -1,016 Descending Indianapolis Center
Fri 12:56:43 PM 40.1372 -84.7397 281° West 377 434 24,000 -871 Descending Indianapolis Center
Fri 12:57:45 PM 40.1583 -84.8756 282° West 377 434 23,700 -1,161 Descending Indianapolis Center
Fri 12:58:47 PM 40.1800 -85.0147 282° West 374 430 21,600 -1,935 Descending Indianapolis Center
Fri 12:59:49 PM 40.2022 -85.1494 282° West 377 434 19,700 -1,742 Descending Indianapolis Center
Fri 01:00:51 PM 40.2219 -85.2817 281° West 371 427 18,000 -1,935 Descending Indianapolis Center
Fri 01:01:53 PM 40.2203 -85.4325 269° West 371 427 15,700 -1,984 Descending Indianapolis Center
Fri 01:02:55 PM 40.1744 -85.5425 241° Southwest 343 395 13,900 -1,742 Descending Indianapolis Center
Fri 01:03:57 PM 40.1306 -85.6442 241° Southwest 322 371 12,100 -1,820 Descending Indianapolis Center
Fri 01:04:24 PM 40.1167 -85.6833 245° Southwest 301 346 11,200 -1,548 Descending Indianapolis TRACON
Fri 01:04:59 PM 40.0900 -85.7372 237° Southwest 297 342 10,500 -1,237 Descending Indianapolis Center
Fri 01:06:01 PM 40.0525 -85.8258 241° Southwest 282 325 9,200 -1,258 Descending Indianapolis Center
Fri 01:07:03 PM 40.0125 -85.9103 238° Southwest 277 319 7,900 -1,210 Descending Indianapolis Center
Fri 01:08:05 PM 39.9581 -85.9769 223° Southwest 236 272 6,700 -1,065 Descending Indianapolis Center
Fri 01:09:07 PM 39.9114 -86.0358 224° Southwest 231 266 5,700 -1,025 Descending Indianapolis Center
Fri 01:11:24 PM 39.8167 -86.1667 227° Southwest 214 246 3,300 -879 Descending Indianapolis TRACON
Fri 01:12:25 PM 39.7667 -86.2167 218° Southwest 186 214 2,800 -793 Descending Indianapolis TRACON
Fri 01:13:25 PM 39.7500 -86.2500 237° Southwest 125 144 1,700 -686 Descending Indianapolis TRACON
Fri 01:15:20 PM 39.7114 -86.2889 218° Southwest 82 94 800 -305 Descending Indianapolis Center
Fri 01:16:22 PM 39.7136 -86.2842 59° Northeast 33 38 800  Level Indianapolis Center
Fri 01:17:24 PM 39.7203 -86.2756 45° Northeast 27 31 800  Level Indianapolis Center
Fri 01:18:26 PM 39.7247 -86.2697 45° Northeast 26 30 800  Level Indianapolis Center
Fri 01:19:28 PM 39.7281 -86.2694 North 24 28 800  Level Indianapolis Center

Login

Don't have an account? Register now (free) for customized features, flight alerts, and more!